createdAt,value
2022-11-13T09:43:42.529Z,8.40
2022-11-13T09:46:21.097Z,8.50
2022-11-13T09:48:53.725Z,8.68
2022-11-13T09:51:26.144Z,8.70
2022-11-13T09:53:54.322Z,7.95
2022-11-13T09:56:30.186Z,8.23
2022-11-13T09:59:22.454Z,7.70
2022-11-13T10:01:58.632Z,7.45
2022-11-13T10:04:42.423Z,8.60
2022-11-13T10:07:25.186Z,8.65
2022-11-13T10:10:06.202Z,7.50
2022-11-13T10:12:35.664Z,8.07
2022-11-13T10:15:07.269Z,6.95
2022-11-13T10:17:39.411Z,7.47
2022-11-13T10:20:15.301Z,7.13
2022-11-13T10:22:51.487Z,6.38
2022-11-13T10:25:21.369Z,7.00
2022-11-13T10:27:55.154Z,6.32
2022-11-13T10:30:24.582Z,6.72
2022-11-13T10:32:52.674Z,6.80
2022-11-13T10:35:46.053Z,6.07
2022-11-13T10:38:22.441Z,6.32
2022-11-13T10:40:50.908Z,6.50
2022-11-13T10:43:23.440Z,5.95
2022-11-13T10:46:00.968Z,5.85
2022-11-13T10:48:32.018Z,5.95
2022-11-13T10:51:03.015Z,5.60
2022-11-13T10:53:40.275Z,5.53
2022-11-13T10:56:25.270Z,5.97
2022-11-13T10:59:11.121Z,5.20
2022-11-13T11:04:15.416Z,5.43
2022-11-13T11:09:33.803Z,5.15
2022-11-13T11:12:24.319Z,5.60
2022-11-13T11:15:17.191Z,4.43
2022-11-13T11:17:50.586Z,5.10
2022-11-13T11:20:25.767Z,4.90
2022-11-13T11:22:59.943Z,4.82
2022-11-13T11:25:36.845Z,5.25
2022-11-13T11:28:10.748Z,5.43
2022-11-13T11:30:48.744Z,5.20
2022-11-13T11:33:24.029Z,4.80
2022-11-13T11:36:00.524Z,4.85
2022-11-13T11:38:34.067Z,4.40
2022-11-13T11:41:15.008Z,4.65
2022-11-13T11:43:46.165Z,4.53
2022-11-13T11:46:15.612Z,4.50
2022-11-13T11:48:44.861Z,3.80
2022-11-13T11:51:22.518Z,4.07
2022-11-13T11:53:59.464Z,4.28
2022-11-13T11:56:33.017Z,4.20
2022-11-13T11:59:13.418Z,4.22
2022-11-13T12:01:57.354Z,4.18
2022-11-13T12:04:43.191Z,3.83
2022-11-13T12:09:56.700Z,3.33
2022-11-13T12:12:46.089Z,3.85
2022-11-13T12:15:23.370Z,3.83
2022-11-13T12:18:00.603Z,4.60
2022-11-13T12:20:38.032Z,4.15
2022-11-13T12:23:21.152Z,5.03
2022-11-13T12:25:52.818Z,4.10
2022-11-13T12:28:25.083Z,4.15
2022-11-13T12:31:04.562Z,3.42
2022-11-13T12:33:44.893Z,4.32
2022-11-13T12:36:16.201Z,3.65
2022-11-13T12:38:52.813Z,3.45
2022-11-13T12:41:31.869Z,3.83
2022-11-13T12:44:16.944Z,3.67
2022-11-13T12:46:45.577Z,3.40
2022-11-13T12:49:28.180Z,3.42
2022-11-13T12:51:59.676Z,2.90
2022-11-13T12:54:32.821Z,2.92
2022-11-13T12:57:09.093Z,2.67
2022-11-13T12:59:40.861Z,17.85
2022-11-13T13:02:26.441Z,23.05
2022-11-13T13:05:08.404Z,6.35
2022-11-13T13:07:56.328Z,3.55
2022-11-13T13:10:30.664Z,3.13
2022-11-13T13:13:05.319Z,3.55
2022-11-13T13:15:37.572Z,2.60
2022-11-13T13:18:09.910Z,3.25
2022-11-13T13:20:40.403Z,3.75
2022-11-13T13:23:13.450Z,2.50
2022-11-13T13:25:42.638Z,2.40
2022-11-13T13:28:24.136Z,2.42
2022-11-13T13:30:59.177Z,2.25
2022-11-13T13:33:33.616Z,2.80
2022-11-13T13:36:12.672Z,2.17
2022-11-13T13:38:52.419Z,2.72
2022-11-13T13:41:33.190Z,2.30
2022-11-13T13:44:24.191Z,2.33
2022-11-13T13:46:52.731Z,2.38
2022-11-13T13:49:23.725Z,2.42
2022-11-13T13:51:54.107Z,2.20
2022-11-13T13:54:26.220Z,2.28
2022-11-13T13:56:55.455Z,2.10
2022-11-13T13:59:33.379Z,2.10
2022-11-13T14:02:03.480Z,2.15
2022-11-13T14:04:36.163Z,1.63
2022-11-13T14:07:04.803Z,2.00
2022-11-13T14:09:35.433Z,2.00
2022-11-13T14:12:09.590Z,2.08
2022-11-13T14:14:40.606Z,1.88
2022-11-13T14:17:11.579Z,2.67
2022-11-13T14:19:39.973Z,1.77
2022-11-13T14:22:13.891Z,2.30
2022-11-13T14:24:48.693Z,2.50
2022-11-13T14:27:20.958Z,2.35
2022-11-13T14:29:51.140Z,2.15
2022-11-13T14:32:22.556Z,2.03
2022-11-13T14:34:53.015Z,2.78
2022-11-13T14:37:28.782Z,2.03
2022-11-13T14:40:00.674Z,2.00
2022-11-13T14:42:37.147Z,2.60
2022-11-13T14:45:16.444Z,2.28
2022-11-13T14:47:45.382Z,2.38
2022-11-13T14:50:24.836Z,2.38
2022-11-13T14:53:01.746Z,2.35
2022-11-13T14:55:33.538Z,2.33
2022-11-13T14:58:01.327Z,2.33
2022-11-13T15:00:34.340Z,2.33
2022-11-13T15:03:04.366Z,2.50
2022-11-13T15:05:33.445Z,1.98
2022-11-13T15:08:01.692Z,2.05
2022-11-13T15:10:32.835Z,2.47
2022-11-13T15:13:00.707Z,2.80
2022-11-13T15:15:30.936Z,2.63
2022-11-13T15:17:59.300Z,1.90
2022-11-13T15:20:29.219Z,2.13
2022-11-13T15:22:59.722Z,2.67
2022-11-13T15:25:28.358Z,2.17
2022-11-13T15:27:57.655Z,2.17
2022-11-13T15:30:25.919Z,2.03
2022-11-13T15:32:54.827Z,1.95
2022-11-13T15:35:23.322Z,2.15
2022-11-13T15:37:51.382Z,2.40
2022-11-13T15:40:19.380Z,2.40
2022-11-13T15:42:47.582Z,1.92
2022-11-13T15:45:17.928Z,2.72
2022-11-13T15:47:45.808Z,1.88
2022-11-13T15:50:15.878Z,2.35
2022-11-13T15:52:47.043Z,2.17
2022-11-13T15:55:22.490Z,2.60
2022-11-13T16:00:25.487Z,3.03
2022-11-13T16:02:55.746Z,2.53
2022-11-13T16:05:25.944Z,6.85
2022-11-13T16:07:54.405Z,4.40
2022-11-13T16:10:26.359Z,3.75
2022-11-13T16:12:57.092Z,2.88
2022-11-13T16:15:26.665Z,2.60
2022-11-13T16:17:57.643Z,2.65
2022-11-13T16:20:28.925Z,2.33
2022-11-13T16:22:57.346Z,2.13
2022-11-13T16:25:25.410Z,2.25
2022-11-13T16:28:11.964Z,3.00
2022-11-13T16:30:44.902Z,3.03
2022-11-13T16:33:17.243Z,3.28
2022-11-13T16:36:23.719Z,3.30
2022-11-13T16:39:00.882Z,3.08
2022-11-13T16:41:39.613Z,3.28
2022-11-13T16:47:36.523Z,2.72
2022-11-13T16:53:20.571Z,2.65
2022-11-13T16:59:24.194Z,2.83
2022-11-13T17:05:14.544Z,2.67
2022-11-13T17:07:43.192Z,2.63
2022-11-13T17:48:52.764Z,3.40
2022-11-13T18:18:57.454Z,6.38
2022-11-13T18:21:29.039Z,5.38
2022-11-13T18:23:58.622Z,5.25
2022-11-13T18:26:28.396Z,4.65
2022-11-13T18:28:56.855Z,5.13
2022-11-13T18:31:25.215Z,4.63
2022-11-13T18:33:53.624Z,4.53
2022-11-13T18:36:23.178Z,5.20
2022-11-13T18:38:51.402Z,4.90
2022-11-13T18:41:21.803Z,5.20
2022-11-13T18:43:51.876Z,4.65
2022-11-13T18:46:24.028Z,5.38
2022-11-13T18:48:52.827Z,7.63
2022-11-13T18:51:24.803Z,5.13
2022-11-13T18:54:04.326Z,5.30
2022-11-13T18:56:54.059Z,5.95
2022-11-13T18:59:26.424Z,5.20
2022-11-13T19:02:07.944Z,6.60
2022-11-13T19:04:37.984Z,6.00
2022-11-13T19:07:08.903Z,5.68
2022-11-13T19:09:36.997Z,5.57
2022-11-13T19:12:10.056Z,6.22
2022-11-13T19:14:53.948Z,5.40
2022-11-13T19:17:23.005Z,5.97
2022-11-13T19:19:51.776Z,5.68
2022-11-13T19:22:23.583Z,6.30
2022-11-13T19:24:54.854Z,6.75
2022-11-13T19:27:23.881Z,7.22
2022-11-13T19:29:56.085Z,7.60
2022-11-13T19:32:26.612Z,6.68
2022-11-13T19:34:56.740Z,6.70
2022-11-13T19:37:27.399Z,6.93
